createdAt,value
2017-10-10T00:01:46.589Z,6.97
2017-10-10T00:04:14.164Z,8.20
2017-10-10T00:06:41.678Z,7.93
2017-10-10T00:09:09.179Z,8.10
2017-10-10T00:11:36.692Z,7.23
2017-10-10T00:14:04.252Z,9.20
2017-10-10T00:16:31.803Z,8.20
2017-10-10T00:19:00.079Z,8.40
2017-10-10T00:21:27.625Z,9.37
2017-10-10T00:23:55.144Z,9.17
2017-10-10T00:26:23.207Z,8.83
2017-10-10T00:28:50.748Z,8.83
2017-10-10T00:31:18.300Z,8.73
2017-10-10T00:33:45.853Z,8.17
2017-10-10T00:36:13.537Z,8.40
2017-10-10T00:38:41.041Z,8.87
2017-10-10T00:41:08.576Z,7.60
2017-10-10T00:43:36.121Z,7.33
2017-10-10T00:46:03.758Z,7.63
2017-10-10T00:48:31.343Z,6.70
2017-10-10T00:50:58.899Z,7.53
2017-10-10T00:53:26.430Z,7.20
2017-10-10T00:55:53.949Z,7.20
2017-10-10T00:58:21.499Z,6.90
2017-10-10T01:00:49.089Z,6.80
2017-10-10T01:03:17.365Z,6.90
2017-10-10T01:05:44.955Z,6.50
2017-10-10T01:08:12.471Z,6.20
2017-10-10T01:10:39.989Z,6.00
2017-10-10T01:13:07.558Z,6.13
2017-10-10T01:15:35.107Z,5.53
2017-10-10T01:18:02.634Z,5.27
2017-10-10T01:20:30.991Z,5.80
2017-10-10T01:22:58.544Z,5.50
2017-10-10T01:25:26.113Z,5.37
2017-10-10T01:27:53.672Z,5.80
2017-10-10T01:30:21.247Z,5.50
2017-10-10T01:32:49.530Z,5.80
2017-10-10T01:35:17.812Z,4.97
2017-10-10T01:37:46.021Z,5.37
2017-10-10T01:40:13.572Z,5.13
2017-10-10T01:42:41.150Z,4.87
2017-10-10T01:45:08.659Z,5.67
2017-10-10T01:47:36.937Z,5.87
2017-10-10T01:50:05.358Z,6.20
2017-10-10T01:52:32.879Z,6.80
2017-10-10T01:55:00.431Z,6.73
2017-10-10T01:57:28.740Z,7.50
2017-10-10T01:59:56.333Z,7.43
2017-10-10T02:02:23.883Z,7.40
2017-10-10T02:04:52.193Z,7.57
2017-10-10T02:07:20.495Z,9.20
2017-10-10T02:09:48.964Z,7.67
2017-10-10T02:12:17.234Z,8.50
2017-10-10T02:14:45.557Z,8.23
2017-10-10T02:17:13.129Z,8.00
2017-10-10T02:19:40.646Z,8.10
2017-10-10T02:22:08.234Z,8.40
2017-10-10T02:24:35.745Z,7.90
2017-10-10T02:27:03.259Z,7.40
2017-10-10T02:29:30.798Z,7.80
2017-10-10T02:31:58.310Z,8.73
2017-10-10T02:34:25.868Z,7.90
2017-10-10T02:36:53.400Z,7.50
2017-10-10T02:39:20.947Z,7.37
2017-10-10T02:41:48.522Z,8.13
2017-10-10T02:44:16.059Z,9.90
2017-10-10T02:46:43.568Z,8.60
2017-10-10T02:49:11.133Z,8.40
2017-10-10T02:51:38.757Z,8.60
2017-10-10T02:54:06.338Z,8.23
2017-10-10T02:56:34.651Z,8.40
2017-10-10T02:59:02.223Z,7.80
2017-10-10T03:01:29.775Z,7.70
2017-10-10T03:03:57.307Z,8.83
2017-10-10T03:06:24.835Z,7.97
2017-10-10T03:08:52.359Z,7.70
2017-10-10T03:11:19.945Z,7.80
2017-10-10T03:13:47.495Z,7.47
2017-10-10T03:16:15.011Z,6.97
2017-10-10T03:18:43.302Z,6.47
2017-10-10T03:21:11.608Z,6.60
2017-10-10T03:23:39.183Z,5.63
2017-10-10T03:26:08.334Z,6.20
2017-10-10T03:28:36.663Z,5.60
2017-10-10T03:31:04.204Z,6.40
2017-10-10T03:33:31.754Z,6.30
2017-10-10T03:35:59.318Z,5.67
2017-10-10T03:38:26.869Z,6.00
2017-10-10T03:40:54.392Z,6.23
2017-10-10T03:43:21.922Z,5.63
2017-10-10T03:45:49.438Z,6.03
2017-10-10T03:48:16.975Z,5.27
2017-10-10T03:50:45.239Z,5.73
2017-10-10T03:53:12.762Z,5.63
2017-10-10T03:55:40.341Z,5.67
2017-10-10T03:58:07.837Z,5.80
2017-10-10T04:00:35.355Z,5.93
2017-10-10T04:03:03.734Z,5.50
2017-10-10T04:05:31.264Z,6.30
2017-10-10T04:07:58.805Z,5.77
2017-10-10T04:10:26.401Z,5.77
2017-10-10T04:12:53.943Z,6.37
2017-10-10T04:15:21.461Z,5.10
2017-10-10T04:17:48.992Z,5.70
2017-10-10T04:20:16.545Z,5.43
2017-10-10T04:22:44.076Z,6.20
2017-10-10T04:25:11.747Z,4.87
2017-10-10T04:27:39.784Z,5.70
2017-10-10T04:30:07.362Z,5.37
2017-10-10T04:32:34.919Z,5.30
2017-10-10T04:35:02.501Z,5.20
2017-10-10T04:37:30.058Z,5.43
2017-10-10T04:39:57.593Z,5.00
2017-10-10T04:42:25.134Z,4.73
2017-10-10T04:44:53.433Z,5.10
2017-10-10T04:47:20.983Z,5.30
2017-10-10T04:49:48.541Z,5.20
2017-10-10T04:52:16.103Z,5.40
2017-10-10T04:54:43.627Z,5.43
2017-10-10T04:57:11.625Z,5.37
2017-10-10T04:59:39.999Z,4.90
2017-10-10T05:02:07.488Z,5.13
2017-10-10T05:04:35.026Z,4.70
2017-10-10T05:07:03.320Z,4.90
2017-10-10T05:09:30.879Z,5.70
2017-10-10T05:11:58.424Z,4.33
2017-10-10T05:14:25.942Z,5.50
2017-10-10T05:16:53.494Z,4.80
2017-10-10T05:19:21.058Z,5.60
2017-10-10T05:21:48.637Z,4.93
2017-10-10T05:24:16.952Z,4.83
2017-10-10T05:26:44.547Z,4.70
2017-10-10T05:29:13.146Z,5.63
2017-10-10T05:31:40.697Z,4.80
2017-10-10T05:34:08.286Z,5.30
2017-10-10T05:36:36.573Z,4.93
2017-10-10T05:39:04.916Z,5.10
2017-10-10T05:41:32.501Z,5.10
2017-10-10T05:44:00.052Z,4.97
2017-10-10T05:46:27.588Z,5.27
2017-10-10T05:48:55.163Z,4.43
2017-10-10T05:51:22.691Z,5.17
2017-10-10T05:53:50.241Z,4.20
2017-10-10T05:56:17.749Z,5.00
2017-10-10T05:58:45.322Z,4.67
2017-10-10T06:01:12.932Z,4.40
2017-10-10T06:03:40.455Z,4.70
2017-10-10T06:06:07.979Z,4.50
2017-10-10T06:08:35.499Z,4.47
2017-10-10T06:11:03.093Z,4.37
2017-10-10T06:13:30.650Z,4.33
2017-10-10T06:15:58.254Z,3.80
2017-10-10T06:18:25.849Z,3.70
2017-10-10T06:20:54.325Z,4.70
2017-10-10T06:23:21.919Z,4.33
2017-10-10T06:25:49.459Z,4.37
2017-10-10T06:28:17.036Z,4.40
2017-10-10T06:30:44.600Z,4.20
2017-10-10T06:33:12.154Z,3.53
2017-10-10T06:35:39.715Z,4.10
2017-10-10T06:38:07.409Z,3.37
2017-10-10T06:40:34.943Z,3.40
2017-10-10T06:43:02.546Z,3.43
2017-10-10T06:45:30.134Z,3.30
2017-10-10T06:47:57.647Z,3.17
2017-10-10T06:50:25.391Z,3.47
2017-10-10T06:52:52.953Z,3.40
2017-10-10T06:55:21.538Z,3.20
2017-10-10T06:57:50.083Z,3.37
2017-10-10T07:00:17.602Z,3.23
2017-10-10T07:02:45.229Z,2.80
2017-10-10T07:05:12.805Z,3.27
2017-10-10T07:07:41.116Z,3.30
2017-10-10T07:10:08.614Z,2.97
2017-10-10T07:12:36.200Z,2.80
2017-10-10T07:15:04.023Z,2.60
2017-10-10T07:17:31.586Z,2.33
2017-10-10T07:19:59.106Z,2.40
2017-10-10T07:22:26.892Z,2.50
2017-10-10T07:24:54.459Z,2.43
2017-10-10T07:27:21.968Z,2.80
2017-10-10T07:29:50.298Z,2.40
2017-10-10T07:32:17.868Z,2.37
2017-10-10T07:34:45.427Z,2.53
2017-10-10T07:37:12.932Z,2.07
2017-10-10T07:39:41.235Z,2.40
2017-10-10T07:42:08.764Z,2.57
2017-10-10T07:44:37.019Z,3.27
2017-10-10T07:47:04.567Z,2.30
2017-10-10T07:49:32.123Z,2.30
2017-10-10T07:51:59.661Z,2.77
2017-10-10T07:54:27.237Z,2.10
2017-10-10T07:56:54.804Z,2.67
2017-10-10T07:59:22.345Z,1.80
2017-10-10T08:01:49.925Z,2.03
2017-10-10T08:04:17.580Z,2.23
2017-10-10T08:06:45.138Z,1.90
2017-10-10T08:09:12.722Z,3.00
2017-10-10T08:11:40.271Z,2.60
2017-10-10T08:14:07.804Z,2.17
2017-10-10T08:16:35.353Z,1.77
2017-10-10T08:19:02.879Z,1.90
2017-10-10T08:21:31.190Z,2.30
2017-10-10T08:23:58.720Z,1.93
2017-10-10T08:26:27.078Z,1.97
2017-10-10T08:28:55.061Z,1.60
2017-10-10T08:31:23.364Z,1.97
2017-10-10T08:33:50.862Z,2.57
2017-10-10T08:36:18.770Z,1.93
2017-10-10T08:38:47.066Z,1.90
2017-10-10T08:41:14.603Z,1.90
2017-10-10T08:43:42.952Z,2.00
2017-10-10T08:46:10.457Z,2.00
2017-10-10T08:48:38.044Z,2.00
2017-10-10T08:51:05.600Z,2.00
2017-10-10T08:53:33.158Z,1.50
2017-10-10T08:56:00.691Z,2.17
2017-10-10T08:58:28.227Z,2.40
2017-10-10T09:00:56.548Z,2.00
2017-10-10T09:03:24.078Z,1.70
2017-10-10T09:05:51.644Z,1.67
2017-10-10T09:08:19.178Z,2.47
2017-10-10T09:10:46.756Z,2.80
2017-10-10T09:13:15.042Z,3.50
2017-10-10T09:15:42.597Z,3.03
2017-10-10T09:18:12.807Z,2.00
2017-10-10T09:20:40.350Z,2.70
2017-10-10T09:23:07.922Z,2.50
2017-10-10T09:25:35.827Z,2.27
2017-10-10T09:28:03.356Z,2.00
2017-10-10T09:30:31.662Z,2.47
2017-10-10T09:32:59.292Z,2.40
2017-10-10T09:35:26.862Z,2.87
2017-10-10T09:37:54.396Z,2.60
2017-10-10T09:40:22.001Z,2.40
2017-10-10T09:42:49.551Z,2.30
2017-10-10T09:45:17.105Z,2.90
2017-10-10T09:47:44.687Z,2.83
2017-10-10T09:50:12.249Z,3.10
2017-10-10T09:52:39.778Z,13.87
2017-10-10T09:55:07.386Z,3.90
2017-10-10T09:57:35.896Z,3.70
2017-10-10T10:00:03.690Z,3.13
2017-10-10T10:02:32.313Z,3.23
2017-10-10T10:04:59.957Z,2.80
2017-10-10T10:07:27.480Z,2.57
2017-10-10T10:09:55.142Z,2.60
2017-10-10T10:12:23.647Z,2.53
2017-10-10T10:14:51.221Z,2.47
2017-10-10T10:17:18.987Z,2.70
2017-10-10T10:19:46.516Z,2.67
2017-10-10T10:22:14.843Z,2.67
2017-10-10T10:24:42.385Z,2.90
2017-10-10T10:27:09.901Z,2.70
2017-10-10T10:29:37.463Z,2.73
2017-10-10T10:32:04.992Z,2.63
2017-10-10T10:34:32.575Z,3.00
2017-10-10T10:37:00.146Z,2.97
2017-10-10T10:39:28.518Z,2.40
2017-10-10T10:41:56.129Z,2.40
2017-10-10T10:44:24.623Z,1.90
2017-10-10T10:46:52.252Z,2.50
2017-10-10T10:49:19.767Z,2.17
2017-10-10T10:51:47.297Z,1.73
2017-10-10T10:54:14.842Z,2.10
2017-10-10T10:56:42.454Z,2.20
2017-10-10T10:59:10.780Z,2.57
2017-10-10T11:01:38.434Z,1.90
2017-10-10T11:04:07.084Z,2.03
2017-10-10T11:06:36.168Z,2.27
2017-10-10T11:09:03.932Z,2.60
2017-10-10T11:11:33.546Z,2.13
2017-10-10T11:14:01.188Z,2.17
2017-10-10T11:16:28.765Z,1.80
2017-10-10T11:18:56.293Z,1.70
2017-10-10T11:21:23.849Z,1.83
2017-10-10T11:23:51.420Z,1.83
2017-10-10T11:26:18.931Z,1.90
2017-10-10T11:28:46.492Z,1.50
2017-10-10T11:31:14.058Z,2.20
2017-10-10T11:33:41.597Z,2.13
2017-10-10T11:36:09.134Z,1.93
2017-10-10T11:38:36.783Z,2.20
2017-10-10T11:41:04.319Z,2.13
2017-10-10T11:43:31.885Z,2.43
2017-10-10T11:45:59.444Z,4.20
2017-10-10T11:48:27.965Z,2.63
2017-10-10T11:50:55.793Z,2.37
2017-10-10T11:53:23.344Z,2.13
2017-10-10T11:55:50.933Z,1.80
2017-10-10T11:58:18.570Z,2.30
2017-10-10T12:00:46.981Z,2.00
2017-10-10T12:03:14.515Z,2.63
2017-10-10T12:05:42.042Z,2.27
2017-10-10T12:25:28.461Z,2.77
2017-10-10T12:27:56.212Z,2.73
2017-10-10T12:30:23.853Z,2.10
2017-10-10T12:32:54.205Z,2.90
2017-10-10T12:35:21.764Z,2.40
2017-10-10T12:37:50.527Z,2.90
2017-10-10T12:40:18.094Z,1.90
2017-10-10T12:42:46.409Z,2.40
2017-10-10T12:45:14.892Z,2.33
2017-10-10T12:47:42.444Z,2.33
2017-10-10T12:50:10.071Z,2.07
2017-10-10T12:52:38.512Z,2.10
2017-10-10T12:55:06.254Z,2.23
2017-10-10T12:57:34.033Z,1.67
2017-10-10T13:00:01.568Z,2.60
2017-10-10T13:02:29.216Z,2.23
2017-10-10T13:04:56.732Z,2.33
2017-10-10T13:07:24.278Z,2.50
2017-10-10T13:09:51.826Z,2.10
2017-10-10T13:12:19.369Z,2.43
2017-10-10T13:14:46.925Z,2.10
2017-10-10T13:17:14.535Z,2.13
2017-10-10T13:19:42.092Z,2.67
2017-10-10T13:22:09.654Z,2.60
2017-10-10T13:24:37.393Z,2.70
2017-10-10T13:27:04.984Z,2.63
2017-10-10T13:29:32.608Z,3.23
2017-10-10T13:32:00.159Z,3.37
2017-10-10T13:34:27.784Z,3.97
2017-10-10T13:36:56.631Z,5.07
2017-10-10T13:39:24.206Z,3.90
2017-10-10T13:41:51.863Z,2.47
2017-10-10T13:44:19.377Z,2.97
2017-10-10T13:46:47.208Z,3.30
2017-10-10T13:49:15.695Z,3.10
2017-10-10T13:51:43.270Z,3.07
2017-10-10T13:54:11.574Z,3.00
2017-10-10T13:56:39.137Z,2.60
2017-10-10T13:59:07.588Z,3.40
2017-10-10T14:01:35.206Z,3.73
2017-10-10T14:04:02.741Z,5.40
2017-10-10T14:06:30.265Z,4.13
2017-10-10T14:08:58.634Z,2.83
2017-10-10T14:11:26.211Z,3.43
2017-10-10T14:13:53.783Z,4.73
2017-10-10T14:16:21.487Z,3.97
2017-10-10T14:18:48.988Z,4.97
2017-10-10T14:21:16.558Z,3.20
2017-10-10T14:23:44.196Z,3.70
2017-10-10T14:26:11.747Z,4.47
2017-10-10T14:28:39.287Z,2.90
2017-10-10T14:31:07.987Z,3.63
2017-10-10T14:33:35.512Z,3.50
2017-10-10T14:36:03.121Z,3.30
2017-10-10T14:38:31.811Z,3.40
2017-10-10T14:40:59.329Z,3.40
2017-10-10T14:43:26.855Z,3.80
2017-10-10T14:45:54.408Z,2.70
2017-10-10T14:48:21.970Z,3.20
2017-10-10T14:50:49.492Z,2.70
2017-10-10T14:53:17.036Z,3.10
2017-10-10T14:55:44.564Z,2.33
2017-10-10T14:58:12.101Z,3.27
2017-10-10T15:00:39.738Z,2.40
2017-10-10T15:03:07.321Z,2.70
2017-10-10T15:05:34.837Z,2.40
2017-10-10T15:08:02.416Z,3.50
2017-10-10T15:10:29.970Z,3.20
2017-10-10T15:12:57.519Z,2.90
2017-10-10T15:15:25.964Z,2.67
2017-10-10T15:17:54.072Z,3.20
2017-10-10T15:20:21.645Z,2.97
2017-10-10T15:22:49.168Z,2.23
2017-10-10T15:25:16.910Z,2.50
2017-10-10T15:27:44.661Z,2.23
2017-10-10T15:30:12.894Z,2.63
2017-10-10T15:32:40.451Z,3.23
2017-10-10T15:35:08.079Z,3.20
2017-10-10T15:37:35.589Z,2.80
2017-10-10T15:40:03.771Z,2.90
2017-10-10T15:42:32.199Z,2.80
2017-10-10T15:45:00.160Z,3.00
2017-10-10T15:47:29.445Z,3.47
2017-10-10T15:49:56.990Z,3.40
2017-10-10T15:52:26.321Z,2.97
2017-10-10T15:54:54.645Z,3.13
2017-10-10T15:57:22.143Z,2.90
2017-10-10T15:59:49.752Z,3.20
2017-10-10T16:02:17.289Z,2.90
2017-10-10T16:04:45.168Z,3.77
2017-10-10T16:07:13.525Z,3.00
2017-10-10T16:09:41.907Z,3.37
2017-10-10T16:12:09.463Z,3.30
2017-10-10T16:14:36.996Z,3.50
2017-10-10T16:17:05.411Z,3.33
2017-10-10T16:19:32.980Z,3.30
2017-10-10T16:22:00.518Z,3.20
2017-10-10T16:24:29.569Z,3.97
2017-10-10T16:26:57.128Z,4.10
2017-10-10T16:29:25.387Z,3.57
2017-10-10T16:31:53.877Z,3.47
2017-10-10T16:34:21.376Z,3.70
2017-10-10T16:36:49.836Z,4.07
2017-10-10T16:39:18.199Z,3.57
2017-10-10T16:41:45.822Z,3.50
2017-10-10T16:44:13.343Z,4.20
2017-10-10T16:46:41.643Z,3.40
2017-10-10T16:49:09.229Z,4.03
2017-10-10T16:51:36.737Z,3.50
2017-10-10T16:54:05.518Z,3.60
2017-10-10T16:56:33.837Z,4.13
2017-10-10T16:59:01.401Z,3.60
2017-10-10T17:01:28.984Z,4.03
2017-10-10T17:03:56.519Z,3.97
2017-10-10T17:06:24.260Z,4.00
2017-10-10T17:08:51.781Z,6.60
2017-10-10T17:11:19.302Z,3.10
2017-10-10T17:13:46.916Z,3.40
2017-10-10T17:16:14.460Z,3.47
2017-10-10T17:18:42.012Z,3.30
2017-10-10T17:21:09.532Z,3.40
2017-10-10T17:23:37.097Z,3.00
2017-10-10T17:26:04.620Z,3.77
2017-10-10T17:28:32.154Z,4.00
2017-10-10T17:30:59.709Z,4.20
2017-10-10T17:33:27.226Z,3.77
2017-10-10T17:35:54.761Z,4.47
2017-10-10T17:38:22.332Z,4.80
2017-10-10T17:40:49.881Z,5.43
2017-10-10T17:43:18.169Z,4.17
2017-10-10T17:45:45.788Z,4.90
2017-10-10T17:48:13.317Z,4.87
2017-10-10T17:50:40.870Z,11.03
2017-10-10T17:53:08.468Z,6.57
2017-10-10T17:55:36.006Z,5.00
2017-10-10T17:58:03.695Z,5.70
2017-10-10T18:00:31.824Z,5.10
2017-10-10T18:02:59.427Z,11.93
2017-10-10T18:05:28.182Z,14.00
2017-10-10T18:07:55.802Z,42.47
2017-10-10T18:10:23.340Z,32.07
2017-10-10T18:12:51.037Z,52.30
2017-10-10T18:15:18.864Z,69.60
2017-10-10T18:17:46.473Z,36.57
2017-10-10T18:20:15.277Z,25.60
2017-10-10T18:22:42.936Z,19.27
2017-10-10T18:25:10.738Z,15.27
2017-10-10T18:27:39.064Z,9.47
2017-10-10T18:30:06.826Z,8.60
2017-10-10T18:32:35.008Z,7.77
2017-10-10T18:35:02.639Z,6.67
2017-10-10T18:37:31.815Z,7.30
2017-10-10T18:39:59.619Z,5.63
2017-10-10T18:42:27.204Z,5.73
2017-10-10T18:44:54.810Z,5.53
2017-10-10T18:47:25.287Z,5.17
2017-10-10T18:49:52.868Z,6.60
2017-10-10T18:52:21.384Z,5.87
2017-10-10T18:54:50.628Z,6.27
2017-10-10T18:57:18.184Z,5.00
2017-10-10T18:59:45.735Z,6.47
2017-10-10T19:02:13.304Z,5.90
2017-10-10T19:04:41.759Z,5.70
2017-10-10T19:07:10.714Z,6.30
2017-10-10T19:09:39.593Z,5.17
2017-10-10T19:12:07.164Z,5.00
2017-10-10T19:14:35.234Z,4.77
2017-10-10T19:17:02.853Z,5.73
2017-10-10T19:19:30.528Z,4.97
2017-10-10T19:21:58.098Z,4.50
2017-10-10T19:24:25.717Z,5.83
2017-10-10T19:26:55.451Z,4.60
2017-10-10T19:29:23.074Z,4.70
2017-10-10T19:31:52.276Z,3.90
2017-10-10T19:34:22.613Z,4.30
2017-10-10T19:36:52.225Z,4.00
2017-10-10T19:39:19.788Z,3.23
2017-10-10T19:41:48.262Z,9.30
2017-10-10T19:44:19.441Z,5.67
2017-10-10T19:46:48.240Z,4.23
2017-10-10T19:49:15.758Z,4.23
2017-10-10T19:51:47.024Z,3.90
2017-10-10T19:54:16.387Z,3.90
2017-10-10T19:56:43.990Z,3.80
2017-10-10T19:59:15.709Z,4.10
2017-10-10T20:01:43.301Z,3.90
2017-10-10T20:04:10.904Z,3.70
2017-10-10T20:06:38.490Z,3.30
2017-10-10T20:09:06.825Z,4.03
2017-10-10T20:11:34.329Z,4.10
2017-10-10T20:14:02.650Z,5.77
2017-10-10T20:16:30.232Z,4.70
2017-10-10T20:18:57.781Z,4.37
2017-10-10T20:21:25.314Z,5.33
2017-10-10T20:23:52.899Z,3.80
2017-10-10T20:26:20.561Z,10.00
2017-10-10T20:28:50.197Z,25.00
2017-10-10T20:31:17.790Z,18.00
2017-10-10T20:33:45.349Z,44.40
2017-10-10T20:36:13.019Z,28.97
2017-10-10T20:38:40.579Z,29.40
2017-10-10T20:41:08.137Z,18.03
2017-10-10T20:43:36.616Z,5.73
2017-10-10T20:46:04.201Z,5.03
2017-10-10T20:48:31.952Z,4.03
2017-10-10T20:50:59.489Z,3.10
2017-10-10T20:53:27.032Z,3.63
2017-10-10T20:55:54.616Z,4.47
2017-10-10T20:58:22.791Z,4.20
2017-10-10T21:00:50.444Z,3.47
2017-10-10T21:03:18.927Z,7.70
2017-10-10T21:05:46.531Z,8.63
2017-10-10T21:08:14.083Z,16.90
2017-10-10T21:10:41.643Z,21.00
2017-10-10T21:13:09.203Z,6.40
2017-10-10T21:15:37.341Z,6.60
2017-10-10T21:18:04.956Z,15.13
2017-10-10T21:20:32.500Z,13.63
2017-10-10T21:23:00.047Z,8.70
2017-10-10T21:25:27.604Z,8.90
2017-10-10T21:27:56.094Z,14.70
2017-10-10T21:30:23.991Z,5.93
2017-10-10T21:32:51.568Z,4.80
2017-10-10T21:35:19.116Z,2.60
2017-10-10T21:37:46.739Z,2.40
2017-10-10T21:40:15.212Z,2.80
2017-10-10T21:42:42.736Z,2.40
2017-10-10T21:45:10.318Z,2.60
2017-10-10T21:47:37.894Z,2.40
2017-10-10T21:50:05.514Z,2.50
2017-10-10T21:52:33.517Z,2.70
2017-10-10T21:55:01.068Z,2.47
2017-10-10T21:57:28.822Z,2.40
2017-10-10T21:59:56.342Z,2.40
2017-10-10T22:02:24.321Z,1.90
2017-10-10T22:04:51.873Z,2.40
2017-10-10T22:07:19.411Z,2.60
2017-10-10T22:09:47.751Z,3.37
2017-10-10T22:12:16.968Z,2.80
2017-10-10T22:14:44.620Z,2.57
2017-10-10T22:17:12.175Z,2.70
2017-10-10T22:19:40.507Z,3.60
2017-10-10T22:22:08.115Z,2.20
2017-10-10T22:24:35.690Z,2.60
2017-10-10T22:27:03.216Z,2.97
2017-10-10T22:29:31.603Z,2.87
2017-10-10T22:31:59.877Z,2.30
2017-10-10T22:34:27.509Z,2.73
2017-10-10T22:36:55.029Z,2.47
2017-10-10T22:39:23.486Z,3.00
2017-10-10T22:41:53.257Z,3.13
2017-10-10T22:44:22.639Z,2.57
2017-10-10T22:46:51.038Z,2.53
2017-10-10T22:49:20.587Z,2.80
2017-10-10T22:51:48.211Z,2.67
2017-10-10T22:54:17.400Z,2.60
2017-10-10T22:56:45.097Z,2.90
2017-10-10T22:59:12.643Z,2.97
2017-10-10T23:01:40.209Z,3.20
2017-10-10T23:04:08.492Z,2.80
2017-10-10T23:06:36.078Z,2.87
2017-10-10T23:09:03.648Z,3.10
2017-10-10T23:11:31.196Z,3.20
2017-10-10T23:13:58.740Z,3.10
2017-10-10T23:16:27.157Z,2.93
2017-10-10T23:18:54.761Z,2.77
2017-10-10T23:21:23.051Z,2.40
2017-10-10T23:23:50.584Z,2.53
2017-10-10T23:26:18.237Z,2.40
2017-10-10T23:28:46.508Z,3.10
2017-10-10T23:31:14.146Z,2.60
2017-10-10T23:33:41.654Z,3.20
2017-10-10T23:36:09.159Z,3.37
2017-10-10T23:38:36.693Z,3.53
2017-10-10T23:41:04.205Z,3.93
2017-10-10T23:43:32.349Z,3.40
2017-10-10T23:45:59.862Z,3.70
2017-10-10T23:48:27.372Z,3.17
2017-10-10T23:50:54.969Z,3.03
2017-10-10T23:53:22.489Z,3.70
2017-10-10T23:55:50.220Z,3.03
2017-10-10T23:58:18.530Z,2.80
